Weather at Prince Rupert Airport

Public forecast

Using degrees Celsius for public forecast. Weather courtesy of forecast.io.

Current aviation weather report (METAR) for Prince Rupert Airport

Retrieved 2020/10/26 07:27 UTC (0 seconds ago):

CYPR 260727Z AUTO 13013G19KT 9SM -RA FEW027 BKN033 OVC041 07/05 A3028 RMK PRESFR SLP256

Aviation forecast (TAF) for Prince Rupert Airport

Retrieved 2020/10/26 07:42 UTC (0 seconds ago):

TAF CYPR 260641Z 2607/2619 12010G20KT P6SM -RA SCT015 OVC030 TEMPO 2607/2608 11/2SM -RA BR SCT008 OVC015 FM260900 12010G20KT P6SM SCT008 OVC015 TEMPO 2609/2619 3SM -RA -DZ BR BKN008 RMK FCST BASED ON AUTO OBS NXT FCST BY 261300Z